createdAt,value
2023-03-18T00:00:49.210Z,87.7
2023-03-18T00:02:05.405Z,87.8
2023-03-18T00:04:27.000Z,88
2023-03-18T00:05:53.993Z,88
2023-03-18T00:06:59.000Z,87.9
2023-03-18T00:08:26.386Z,87.8
2023-03-18T00:09:42.581Z,87.9
2023-03-18T00:10:58.778Z,88
2023-03-18T00:12:14.973Z,88
2023-03-18T00:13:31.169Z,87.8
2023-03-18T00:14:46.381Z,87.7
2023-03-18T00:15:52.000Z,87.6
2023-03-18T00:17:18.773Z,87.7
2023-03-18T00:18:34.970Z,87.8
2023-03-18T00:19:40.000Z,87.8
2023-03-18T00:21:07.362Z,87.7
2023-03-18T00:22:23.557Z,87.5
2023-03-18T00:23:39.754Z,87.6
2023-03-18T00:24:55.950Z,87.7
2023-03-18T00:26:12.146Z,87.6
2023-03-18T00:27:17.000Z,87.7
2023-03-18T00:28:44.538Z,87.6
2023-03-18T00:29:19.000Z,88
2023-03-18T00:29:49.000Z,87.8
2023-03-18T00:31:16.220Z,88
2023-03-18T00:32:21.000Z,88.1
2023-03-18T00:33:48.345Z,88.1
2023-03-18T00:36:20.736Z,87.9
2023-03-18T00:37:36.931Z,87.9
2023-03-18T00:38:53.128Z,88.1
2023-03-18T00:40:09.321Z,88
2023-03-18T00:41:25.515Z,87.8
2023-03-18T00:42:41.959Z,87.8
2023-03-18T00:43:57.903Z,88
2023-03-18T00:45:03.000Z,87.9
2023-03-18T00:46:30.539Z,88
2023-03-18T00:47:45.747Z,87.9
2023-03-18T00:48:21.000Z,88
2023-03-18T00:49:01.694Z,87.9
2023-03-18T00:50:17.888Z,88
2023-03-18T00:51:23.000Z,87.9
2023-03-18T00:52:50.275Z,88.1
2023-03-18T00:55:12.000Z,88
2023-03-18T00:56:39.106Z,87.9
2023-03-18T00:57:55.299Z,87.8
2023-03-18T00:59:00.000Z,87.8
2023-03-18T01:00:27.681Z,87.6
2023-03-18T01:01:43.878Z,87.5
2023-03-18T01:02:49.000Z,87.3
2023-03-18T01:04:16.018Z,87.3
2023-03-18T01:05:20.000Z,87.1
2023-03-18T01:06:47.421Z,87.2
2023-03-18T01:07:53.000Z,87.2
2023-03-18T01:09:20.059Z,87.2
2023-03-18T01:10:36.002Z,87.3
2023-03-18T01:11:11.000Z,87.5
2023-03-18T01:11:52.195Z,87.1
2023-03-18T01:13:08.389Z,87.2
2023-03-18T01:14:14.000Z,87.2
2023-03-18T01:15:40.777Z,87.3
2023-03-18T01:18:02.000Z,87.5
2023-03-18T01:19:29.358Z,87.5
2023-03-18T01:20:35.000Z,87.6
2023-03-18T01:22:00.762Z,87.8
2023-03-18T01:23:06.000Z,87.6
2023-03-18T01:24:33.399Z,87.6
2023-03-18T01:25:49.343Z,87.6
2023-03-18T01:27:05.536Z,87.5
2023-03-18T01:28:11.000Z,87.6
2023-03-18T01:29:37.924Z,87.7
2023-03-18T01:30:54.117Z,87.6
2023-03-18T01:32:10.311Z,87.8
2023-03-18T01:33:16.000Z,87.9
2023-03-18T01:34:42.698Z,87.6
2023-03-18T01:35:48.000Z,87.7
2023-03-18T01:37:15.086Z,87.7
2023-03-18T01:38:30.546Z,87.6
2023-03-18T01:39:46.489Z,87.8
2023-03-18T01:41:02.683Z,88.1
2023-03-18T01:42:18.876Z,88.2
2023-03-18T01:43:35.070Z,88.3
2023-03-18T01:44:40.000Z,88.9
2023-03-18T01:46:07.701Z,88.6
2023-03-18T01:47:23.651Z,88.6
2023-03-18T01:48:40.091Z,88.2
2023-03-18T01:49:56.039Z,88.1
2023-03-18T01:51:01.000Z,88
2023-03-18T01:52:28.426Z,88.3
2023-03-18T01:53:44.620Z,88.5
2023-03-18T01:55:00.814Z,88.8
2023-03-18T01:56:16.023Z,89
2023-03-18T01:57:32.217Z,89.3
2023-03-18T01:58:37.000Z,89.8
2023-03-18T02:00:04.604Z,89.6
2023-03-18T02:01:21.053Z,89.6
2023-03-18T02:02:37.242Z,89.8
2023-03-18T02:03:53.437Z,89.8
2023-03-18T02:05:09.379Z,89.8
2023-03-18T02:06:25.573Z,89.5
2023-03-18T02:07:41.766Z,89.5
2023-03-18T02:08:47.000Z,89.3
2023-03-18T02:10:14.154Z,89.3
2023-03-18T02:11:19.000Z,89.2
2023-03-18T02:12:45.558Z,89.2
2023-03-18T02:14:01.994Z,89.6
2023-03-18T02:15:17.944Z,90.1
2023-03-18T02:16:34.380Z,90.1
2023-03-18T02:17:50.331Z,90.2
2023-03-18T02:20:01.609Z,90.3
2023-03-18T02:20:22.719Z,90.5
2023-03-18T02:21:39.159Z,90.6
2023-03-18T02:22:55.107Z,90.6
2023-03-18T02:24:00.000Z,90.7
2023-03-18T02:25:27.494Z,90.3
2023-03-18T02:26:33.000Z,90.3
2023-03-18T02:27:59.881Z,90
2023-03-18T02:29:15.334Z,90
2023-03-18T02:30:31.285Z,90
2023-03-18T02:31:47.479Z,89.8
2023-03-18T02:33:03.672Z,89.8
2023-03-18T02:34:19.866Z,89.6
2023-03-18T02:35:36.059Z,89.5
2023-03-18T02:36:52.253Z,89.8
2023-03-18T02:38:08.447Z,90
2023-03-18T02:39:24.882Z,89.8
2023-03-18T02:40:40.834Z,89.5
2023-03-18T02:41:57.277Z,89.2
2023-03-18T02:43:13.221Z,89
2023-03-18T02:44:29.415Z,89.1
2023-03-18T02:45:45.609Z,88.8
2023-03-18T02:47:01.802Z,88.8
2023-03-18T02:48:17.258Z,88.5
2023-03-18T02:49:33.206Z,88.4
2023-03-18T02:50:49.399Z,88.4
2023-03-18T02:52:05.836Z,88.5
2023-03-18T02:53:21.786Z,88.2
2023-03-18T02:54:38.228Z,88.3
2023-03-18T02:55:54.174Z,88.5
2023-03-18T02:57:10.368Z,88.6
2023-03-18T02:58:26.562Z,88.8
2023-03-18T02:59:42.756Z,88.8
2023-03-18T03:00:58.949Z,88.7
2023-03-18T03:01:33.000Z,89.2
2023-03-18T03:02:15.143Z,89
2023-03-18T03:03:31.588Z,89.2
2023-03-18T03:04:36.000Z,89.2
2023-03-18T03:06:02.740Z,89.2
2023-03-18T03:08:35.127Z,89.2
2023-03-18T03:09:51.321Z,89.5
2023-03-18T03:11:07.514Z,89.4
2023-03-18T03:12:23.708Z,89.3
2023-03-18T03:13:39.901Z,89.2
2023-03-18T03:14:56.095Z,89.3
2023-03-18T03:16:12.288Z,89.3
2023-03-18T03:17:28.482Z,89.6
2023-03-18T03:18:44.676Z,89.5
2023-03-18T03:19:50.000Z,89.8
2023-03-18T03:21:16.330Z,89.8
2023-03-18T03:22:32.523Z,89.7
2023-03-18T03:23:48.466Z,90
2023-03-18T03:24:54.000Z,90
2023-03-18T03:26:20.853Z,89.9
2023-03-18T03:27:37.047Z,89.9
2023-03-18T03:28:12.000Z,89.6
2023-03-18T03:28:53.242Z,89.8
2023-03-18T03:29:58.000Z,89.7
2023-03-18T03:31:25.629Z,89.9
2023-03-18T03:32:31.000Z,89.9
2023-03-18T03:35:03.000Z,89.5
2023-03-18T03:36:30.403Z,89.3
2023-03-18T03:37:46.597Z,89.6
2023-03-18T03:38:20.000Z,89.5
2023-03-18T03:39:02.791Z,89.5
2023-03-18T03:39:35.000Z,89.6
2023-03-18T03:40:08.000Z,89.7
2023-03-18T03:41:34.195Z,89.7
2023-03-18T03:42:50.389Z,89.6
2023-03-18T03:46:37.259Z,89.5
2023-03-18T03:47:53.206Z,89.5
2023-03-18T03:49:09.648Z,89.3
2023-03-18T03:50:24.871Z,89.2
2023-03-18T03:51:40.813Z,89.1
2023-03-18T03:52:45.000Z,89.2
2023-03-18T03:54:01.000Z,89.4
2023-03-18T03:55:17.000Z,89.5
2023-03-18T03:56:44.852Z,89.5
2023-03-18T03:57:50.000Z,89.3
2023-03-18T03:59:16.991Z,89
2023-03-18T04:00:33.436Z,89
2023-03-18T04:01:38.000Z,88.9
2023-03-18T04:02:55.000Z,88.8
2023-03-18T04:04:21.765Z,88.8
2023-03-18T04:05:27.000Z,88.8
2023-03-18T04:06:43.000Z,88.8
2023-03-18T04:07:59.000Z,88.6
2023-03-18T04:09:25.802Z,88.9
2023-03-18T04:10:31.000Z,88.8
2023-03-18T04:11:58.194Z,88.9
2023-03-18T04:13:03.000Z,88.7
2023-03-18T04:14:30.330Z,88.9
2023-03-18T04:15:46.524Z,88.9
2023-03-18T04:17:02.718Z,88.9
2023-03-18T04:18:08.000Z,88.7
2023-03-18T04:19:24.000Z,88.7
2023-03-18T04:20:51.299Z,88.8
2023-03-18T04:22:07.743Z,89
2023-03-18T04:23:23.929Z,88.8
2023-03-18T04:24:29.000Z,89.1
2023-03-18T04:25:56.313Z,89.3
2023-03-18T04:27:12.517Z,89.4
2023-03-18T04:28:27.730Z,89.3
2023-03-18T04:29:43.912Z,89.5
2023-03-18T04:30:49.000Z,89.5
2023-03-18T04:32:05.000Z,89.5
2023-03-18T04:33:21.000Z,89.4
2023-03-18T04:34:48.694Z,89.2
2023-03-18T04:36:03.908Z,89.2
2023-03-18T04:37:09.000Z,89.1
2023-03-18T04:38:24.000Z,89
2023-03-18T04:39:40.000Z,88.8
2023-03-18T04:40:56.000Z,89.1
2023-03-18T04:42:23.891Z,89.3
2023-03-18T04:43:28.000Z,89.2
2023-03-18T04:44:13.000Z,88.9
2023-03-18T04:44:54.085Z,89
2023-03-18T04:45:59.000Z,88.8
2023-03-18T04:47:26.721Z,88.8
2023-03-18T04:48:42.918Z,88.8
2023-03-18T04:51:04.000Z,89.3
2023-03-18T04:52:31.499Z,89.5
2023-03-18T04:53:36.000Z,89.2
2023-03-18T04:55:03.634Z,89
2023-03-18T04:56:09.000Z,88.7
2023-03-18T04:57:36.021Z,89.1
2023-03-18T04:58:41.000Z,89.2
2023-03-18T04:59:57.000Z,89.3
2023-03-18T05:01:13.000Z,89.4
2023-03-18T05:02:40.059Z,89.3
2023-03-18T05:03:45.000Z,89.2
2023-03-18T05:05:12.444Z,89.2
2023-03-18T05:06:17.000Z,89.2
2023-03-18T05:07:44.588Z,89.2
2023-03-18T05:08:50.000Z,89.1
2023-03-18T05:10:16.976Z,89
2023-03-18T05:11:33.417Z,89.3
2023-03-18T05:12:49.363Z,89.2
2023-03-18T05:13:55.000Z,89
2023-03-18T05:15:21.751Z,88.8
2023-03-18T05:16:38.188Z,89.1
2023-03-18T05:17:43.000Z,89.2
2023-03-18T05:18:59.000Z,89.2
2023-03-18T05:20:26.776Z,89.3
2023-03-18T05:21:31.000Z,89.3
2023-03-18T05:22:58.171Z,89.2
2023-03-18T05:24:03.000Z,89.2
2023-03-18T05:25:19.000Z,89.2
2023-03-18T05:26:46.752Z,89.3
2023-03-18T05:28:02.951Z,89.2
2023-03-18T05:29:08.000Z,89.1
2023-03-18T05:30:35.333Z,89.2
2023-03-18T05:31:51.537Z,89
2023-03-18T05:33:07.477Z,89
2023-03-18T05:34:13.000Z,89.4
2023-03-18T05:35:40.106Z,89.2
2023-03-18T05:36:56.313Z,89.1
2023-03-18T05:38:11.269Z,89.2
2023-03-18T05:39:16.000Z,89.2
2023-03-18T05:40:43.905Z,89.3
2023-03-18T05:41:49.000Z,89.1
2023-03-18T05:43:16.292Z,89
2023-03-18T05:44:32.236Z,88.9
2023-03-18T05:45:48.430Z,89
2023-03-18T05:46:54.000Z,88.9
2023-03-18T05:48:20.818Z,89
2023-03-18T05:49:26.000Z,89
2023-03-18T05:50:53.205Z,89.1
2023-03-18T05:52:09.399Z,89.1
2023-03-18T05:53:25.592Z,89.5
2023-03-18T05:54:30.000Z,89.6
2023-03-18T05:55:56.997Z,89.7
2023-03-18T05:57:13.191Z,89.8
2023-03-18T05:58:29.384Z,89.7
2023-03-18T05:59:35.000Z,89.8
2023-03-18T06:00:51.000Z,89.8
2023-03-18T06:02:07.000Z,90
2023-03-18T06:02:53.000Z,89.5
2023-03-18T06:03:34.158Z,90
2023-03-18T06:04:50.612Z,89.7
2023-03-18T06:06:06.546Z,89.5
2023-03-18T06:07:12.000Z,89.4
2023-03-18T06:09:55.127Z,89.4
2023-03-18T06:11:11.564Z,89.2
2023-03-18T06:12:15.000Z,89.2
2023-03-18T06:13:42.967Z,89
2023-03-18T06:14:48.000Z,88.9
2023-03-18T06:16:15.112Z,88.7
2023-03-18T06:17:31.548Z,88.5
2023-03-18T06:18:47.499Z,88.4
2023-03-18T06:19:53.000Z,88.3
2023-03-18T06:21:19.887Z,88.3
2023-03-18T06:22:25.000Z,88.2
2023-03-18T06:23:52.274Z,88.2
2023-03-18T06:24:57.000Z,88
2023-03-18T06:26:24.662Z,87.9
2023-03-18T06:27:30.000Z,87.9
2023-03-18T06:28:56.310Z,87.8
2023-03-18T06:30:12.498Z,87.6
2023-03-18T06:31:28.452Z,87.3
2023-03-18T06:32:44.895Z,87.3
2023-03-18T06:33:50.000Z,87.1
2023-03-18T06:35:17.033Z,86.7
2023-03-18T06:36:33.479Z,86.6
2023-03-18T06:37:38.000Z,86.4
2023-03-18T06:39:05.856Z,86.1
2023-03-18T06:40:11.000Z,86.4
2023-03-18T06:41:38.001Z,86.3
2023-03-18T06:42:43.000Z,86
2023-03-18T06:44:10.389Z,85.8
2023-03-18T06:45:15.000Z,85.7
2023-03-18T06:46:41.792Z,85.4
2023-03-18T06:47:57.986Z,85.3
2023-03-18T06:49:14.179Z,85.4
2023-03-18T06:50:19.000Z,85.3
2023-03-18T06:51:45.857Z,85
2023-03-18T06:52:50.000Z,84.8
2023-03-18T06:54:16.270Z,84.7
2023-03-18T06:55:20.000Z,84.5
2023-03-18T06:56:47.428Z,84.2
2023-03-18T06:58:03.879Z,84.1
2023-03-18T06:59:19.816Z,84.2
2023-03-18T07:00:25.000Z,84.1
2023-03-18T07:01:52.203Z,83.9
2023-03-18T07:02:57.000Z,83.7
2023-03-18T07:04:14.000Z,83.5
2023-03-18T07:05:41.031Z,83.1
2023-03-18T07:06:56.977Z,83
2023-03-18T07:08:13.415Z,82.9
2023-03-18T07:09:18.000Z,82.8
2023-03-18T07:10:34.000Z,82.4
2023-03-18T07:12:01.753Z,82.4
2023-03-18T07:13:17.207Z,82.3
2023-03-18T07:14:33.418Z,82.3
2023-03-18T07:15:49.350Z,82
2023-03-18T07:17:05.543Z,81.9
2023-03-18T07:18:11.000Z,81.6
2023-03-18T07:19:37.931Z,81.4
2023-03-18T07:20:54.371Z,81.3
2023-03-18T07:22:10.580Z,81.1
2023-03-18T07:23:26.511Z,80.8
2023-03-18T07:24:42.705Z,80.2
2023-03-18T07:25:59.139Z,80.1
2023-03-18T07:27:15.092Z,79.6
2023-03-18T07:27:49.000Z,79.3
2023-03-18T07:28:20.000Z,79.8
2023-03-18T07:29:35.000Z,79.5
2023-03-18T07:30:52.000Z,79.5
2023-03-18T07:32:19.138Z,79.4
2023-03-18T07:34:51.271Z,79
2023-03-18T07:36:07.465Z,79.2
2023-03-18T07:36:43.000Z,78.3
2023-03-18T07:37:13.000Z,78.8
2023-03-18T07:38:29.000Z,78.6
2023-03-18T07:39:56.301Z,78.6
2023-03-18T07:41:01.000Z,78.3
2023-03-18T07:43:34.000Z,77.7
2023-03-18T07:45:00.821Z,77.9
2023-03-18T07:46:16.294Z,78.3
2023-03-18T07:47:32.465Z,77.5
2023-03-18T07:48:48.418Z,77.5
2023-03-18T07:50:04.611Z,76.9
2023-03-18T07:51:10.000Z,76.7
2023-03-18T07:52:36.999Z,76.9
2023-03-18T07:53:42.000Z,76.9
2023-03-18T07:55:09.386Z,76.4
2023-03-18T07:56:25.826Z,76.6
2023-03-18T07:57:41.773Z,76.4
2023-03-18T07:58:47.000Z,76.1
2023-03-18T08:00:14.409Z,76.5
2023-03-18T08:01:30.354Z,76.2
2023-03-18T08:02:03.000Z,75.6
2023-03-18T08:02:46.801Z,75.6
2023-03-18T08:04:01.757Z,75.2
2023-03-18T08:05:06.000Z,76.3
2023-03-18T08:05:49.000Z,74.2
2023-03-18T08:06:32.187Z,75.5
2023-03-18T08:08:53.000Z,75.1
2023-03-18T08:10:19.794Z,74.9
2023-03-18T08:12:51.197Z,74.1
2023-03-18T08:14:07.634Z,73.9
2023-03-18T08:15:23.584Z,73.7
2023-03-18T08:16:29.000Z,73.6
2023-03-18T08:17:56.222Z,73.4
2023-03-18T08:19:01.000Z,73
2023-03-18T08:20:28.359Z,73.3
2023-03-18T08:21:33.000Z,73.4
2023-03-18T08:23:00.746Z,73.3
2023-03-18T08:24:06.000Z,73.3
2023-03-18T08:25:33.382Z,73.2
2023-03-18T08:26:38.000Z,73.4
2023-03-18T08:28:04.537Z,72.9
2023-03-18T08:29:10.000Z,73.2
2023-03-18T08:30:37.190Z,71.9
2023-03-18T08:31:42.000Z,72.5
2023-03-18T08:33:09.310Z,72.4
2023-03-18T08:34:14.000Z,72.4
2023-03-18T08:35:41.697Z,73
2023-03-18T08:36:47.000Z,73.2
2023-03-18T08:38:14.342Z,72.9
2023-03-18T08:39:19.000Z,72.3
2023-03-18T08:40:46.724Z,72.3
2023-03-18T08:42:02.665Z,72.1
2023-03-18T08:43:18.858Z,71.8
2023-03-18T08:44:34.068Z,71.6
2023-03-18T08:45:50.261Z,71.9
2023-03-18T08:46:55.000Z,72.1
2023-03-18T08:48:22.648Z,71.8
2023-03-18T08:49:38.842Z,71
2023-03-18T08:50:55.035Z,71.7
2023-03-18T08:51:30.000Z,70.8
2023-03-18T08:52:11.484Z,71.7
2023-03-18T08:53:27.423Z,70.8
2023-03-18T08:54:43.617Z,70.8
2023-03-18T08:56:00.056Z,70.7
2023-03-18T08:58:32.197Z,70.3
2023-03-18T08:59:47.659Z,70.2
2023-03-18T09:01:03.606Z,69.7
2023-03-18T09:02:20.048Z,69.2
2023-03-18T09:03:35.993Z,69.6
2023-03-18T09:04:52.186Z,69.3
2023-03-18T09:06:08.380Z,69.8
2023-03-18T09:07:13.000Z,68.6
2023-03-18T09:08:40.767Z,69.2
2023-03-18T09:09:56.960Z,69
2023-03-18T09:11:13.153Z,68.1
2023-03-18T09:12:18.000Z,67.7
2023-03-18T09:13:34.000Z,67.2
2023-03-18T09:15:01.978Z,67.5
2023-03-18T09:16:17.204Z,66.8
2023-03-18T09:17:33.137Z,66.9
2023-03-18T09:18:49.331Z,67.3
2023-03-18T09:20:05.524Z,66.7
2023-03-18T09:21:21.717Z,65.6
2023-03-18T09:22:26.000Z,66
2023-03-18T09:23:52.407Z,65.5
2023-03-18T09:25:08.588Z,65.4
2023-03-18T09:26:13.000Z,65.7
2023-03-18T09:27:40.727Z,65.9
2023-03-18T09:28:56.922Z,65.5
2023-03-18T09:30:01.000Z,65.5
2023-03-18T09:31:27.602Z,65.8
2023-03-18T09:32:43.545Z,65.1
2023-03-18T09:33:59.984Z,64.9
2023-03-18T09:35:15.932Z,64.6
2023-03-18T09:36:32.125Z,65
2023-03-18T09:37:37.000Z,65.7
2023-03-18T09:39:04.512Z,64.8
2023-03-18T09:40:20.959Z,64.9
2023-03-18T09:41:36.900Z,65
2023-03-18T09:42:53.093Z,64.1
2023-03-18T09:43:58.000Z,64.3
2023-03-18T09:45:25.480Z,64.4
2023-03-18T09:46:41.674Z,64.4
2023-03-18T09:47:56.883Z,65.1
2023-03-18T09:48:32.000Z,63.8
2023-03-18T09:49:13.077Z,64.5
2023-03-18T09:50:29.526Z,64.5
2023-03-18T09:51:45.464Z,64.4
2023-03-18T09:53:01.908Z,63.7
2023-03-18T09:55:23.000Z,63.9
2023-03-18T09:56:50.238Z,63.8
2023-03-18T09:57:55.000Z,64
2023-03-18T09:59:22.624Z,63.7
2023-03-18T10:00:28.000Z,63.3
2023-03-18T10:01:44.000Z,63.8
2023-03-18T10:03:00.000Z,62.8
2023-03-18T10:04:26.415Z,63.2
2023-03-18T10:05:42.608Z,62.9
2023-03-18T10:06:48.000Z,63
2023-03-18T10:07:34.000Z,63.4
2023-03-18T10:08:04.000Z,63.3
2023-03-18T10:09:31.188Z,63.4
2023-03-18T10:10:47.381Z,63.4
2023-03-18T10:12:03.575Z,63.3
2023-03-18T10:14:35.965Z,63.7
2023-03-18T10:15:41.000Z,64.8
2023-03-18T10:17:08.354Z,63.7
2023-03-18T10:18:24.548Z,63.5
2023-03-18T10:19:40.743Z,64
2023-03-18T10:20:55.954Z,63.4
2023-03-18T10:22:12.149Z,63.1
2023-03-18T10:23:28.343Z,63.2
2023-03-18T10:24:33.000Z,62.7
2023-03-18T10:26:00.733Z,62.5
2023-03-18T10:27:17.195Z,62.6
2023-03-18T10:28:22.000Z,62.4
2023-03-18T10:29:49.317Z,62.1
2023-03-18T10:31:05.767Z,62.4
2023-03-18T10:32:21.706Z,62.9
2023-03-18T10:32:56.000Z,64
2023-03-18T10:34:01.374Z,62.6
2023-03-18T10:34:54.094Z,63.2
2023-03-18T10:36:10.290Z,63.7
2023-03-18T10:37:25.501Z,64
2023-03-18T10:39:57.892Z,63.5
2023-03-18T10:41:03.000Z,63.9
2023-03-18T10:42:30.283Z,64
2023-03-18T10:43:46.478Z,63.8
2023-03-18T10:45:02.674Z,62.6
2023-03-18T10:46:08.000Z,62.6
2023-03-18T10:47:24.000Z,63.3
2023-03-18T10:48:51.260Z,63
2023-03-18T10:50:07.455Z,61.9
2023-03-18T10:50:41.000Z,62.9
2023-03-18T10:51:23.651Z,61.6
2023-03-18T10:52:39.846Z,61.7
2023-03-18T10:53:44.000Z,61.5
2023-03-18T10:55:11.253Z,62.6
2023-03-18T10:57:43.643Z,63.1
2023-03-18T10:58:59.839Z,63
2023-03-18T11:00:16.034Z,62.6
2023-03-18T11:01:21.000Z,62.8
2023-03-18T11:02:48.670Z,63.8
2023-03-18T11:04:04.620Z,63.5
2023-03-18T11:05:20.816Z,63.6
2023-03-18T11:06:26.000Z,63.9
2023-03-18T11:07:53.207Z,64.1
2023-03-18T11:08:58.000Z,63.6
2023-03-18T11:10:24.614Z,63.6
2023-03-18T11:11:40.808Z,63.5
2023-03-18T11:12:57.004Z,63.9
2023-03-18T11:14:13.199Z,61.8
2023-03-18T11:15:29.395Z,62.6
2023-03-18T11:16:34.000Z,62.6
2023-03-18T11:18:02.035Z,62.3
2023-03-18T11:19:07.000Z,61.2
2023-03-18T11:20:34.431Z,61.5
2023-03-18T11:21:50.633Z,61.7
2023-03-18T11:22:55.000Z,61.1
2023-03-18T11:24:12.000Z,61.2
2023-03-18T11:25:39.213Z,60.2
2023-03-18T11:26:54.170Z,60.5
2023-03-18T11:28:10.616Z,59.4
2023-03-18T11:29:15.000Z,59.9
2023-03-18T11:30:42.757Z,60.1
2023-03-18T11:31:48.000Z,60.4
2023-03-18T11:33:15.148Z,60.9
2023-03-18T11:34:20.000Z,60.2
2023-03-18T11:35:47.539Z,59.9
2023-03-18T11:37:03.734Z,60.2
2023-03-18T11:38:20.179Z,59.7
2023-03-18T11:39:36.125Z,59.4
2023-03-18T11:40:52.573Z,58.6
2023-03-18T11:42:08.516Z,58.9
2023-03-18T11:43:24.712Z,58.5
2023-03-18T11:44:29.000Z,58.3
2023-03-18T11:45:56.119Z,58.7
2023-03-18T11:47:12.569Z,58.7
2023-03-18T11:48:28.510Z,58.2
2023-03-18T11:49:44.705Z,59.3
2023-03-18T11:51:00.901Z,58.8
2023-03-18T11:52:17.096Z,59.4
2023-03-18T11:53:33.292Z,59.5
2023-03-18T11:54:38.000Z,59.3
2023-03-18T11:56:05.683Z,59.1
2023-03-18T11:57:11.000Z,58.8
2023-03-18T11:58:38.073Z,58.6
2023-03-18T11:59:43.000Z,58.4
2023-03-18T12:01:09.480Z,58.7
2023-03-18T12:02:15.000Z,58.1
2023-03-18T12:03:41.871Z,58
2023-03-18T12:04:58.066Z,58
2023-03-18T12:06:14.262Z,57.6
2023-03-18T12:07:19.000Z,57.5
2023-03-18T12:08:46.653Z,57.6
2023-03-18T12:09:52.000Z,57.3
2023-03-18T12:11:19.044Z,57.2
2023-03-18T12:12:35.507Z,57
2023-03-18T12:13:51.682Z,56.7
2023-03-18T12:15:07.630Z,57.7
2023-03-18T12:16:23.826Z,56.1
2023-03-18T12:17:39.037Z,57
2023-03-18T12:18:55.233Z,57.1
2023-03-18T12:20:11.674Z,56.6
2023-03-18T12:20:46.000Z,55.7
2023-03-18T12:21:27.624Z,57.5
2023-03-18T12:22:44.062Z,55.6
2023-03-18T12:23:49.000Z,57.3
2023-03-18T12:25:05.000Z,56.3
2023-03-18T12:27:37.000Z,55.9
2023-03-18T12:29:05.041Z,56
2023-03-18T12:30:20.992Z,55.8
2023-03-18T12:31:37.188Z,55.8
2023-03-18T12:32:42.000Z,55.6
2023-03-18T12:34:09.580Z,55.8
2023-03-18T12:35:14.000Z,56.4
2023-03-18T12:36:30.000Z,55.5
2023-03-18T12:37:46.000Z,55.4
2023-03-18T12:39:13.379Z,54.9
2023-03-18T12:40:29.819Z,54.4
2023-03-18T12:41:45.770Z,54.3
2023-03-18T12:42:21.000Z,54
2023-03-18T12:43:01.965Z,54.1
2023-03-18T12:44:18.410Z,53.8
2023-03-18T12:45:34.609Z,53.2
2023-03-18T12:46:39.000Z,54.1
2023-03-18T12:49:23.210Z,54.7
2023-03-18T12:50:28.000Z,55.1
2023-03-18T12:51:54.352Z,55.9
2023-03-18T12:52:59.000Z,56.8
2023-03-18T12:54:26.743Z,56.2
2023-03-18T12:55:42.938Z,56.1
2023-03-18T12:56:48.000Z,56.8
2023-03-18T12:58:15.578Z,56.5
2023-03-18T12:59:31.526Z,56.5
2023-03-18T13:00:37.000Z,56.7
2023-03-18T13:01:53.000Z,56.2
2023-03-18T13:03:09.000Z,56.2
2023-03-18T13:04:36.309Z,55.4
2023-03-18T13:05:41.000Z,56
2023-03-18T13:07:08.700Z,56.2
2023-03-18T13:08:23.912Z,56.5
2023-03-18T13:09:40.108Z,57
2023-03-18T13:10:45.000Z,57
2023-03-18T13:12:12.499Z,57.1
2023-03-18T13:13:18.000Z,57.6
2023-03-18T13:14:44.152Z,57.7
2023-03-18T13:15:49.000Z,57.4
2023-03-18T13:17:16.303Z,57.6
2023-03-18T13:18:21.000Z,57.6
2023-03-18T13:19:48.948Z,57.8
2023-03-18T13:21:04.890Z,58.5
2023-03-18T13:22:21.330Z,58.5
2023-03-18T13:23:37.525Z,58
2023-03-18T13:24:53.477Z,58.2
2023-03-18T13:25:58.000Z,58.5
2023-03-18T13:27:26.132Z,58.5
2023-03-18T13:28:31.000Z,59.3
2023-03-18T13:29:47.000Z,59.7
2023-03-18T13:31:02.000Z,59.6
2023-03-18T13:32:29.667Z,59.5
2023-03-18T13:33:35.000Z,58.6
2023-03-18T13:34:51.000Z,57.9
2023-03-18T13:36:07.000Z,59
2023-03-18T13:37:34.698Z,58.7
2023-03-18T13:38:39.000Z,58.2
2023-03-18T13:40:07.083Z,58.8
2023-03-18T13:41:12.000Z,58.4
2023-03-18T13:42:39.487Z,58.6
2023-03-18T13:43:44.000Z,59.3
2023-03-18T13:45:11.866Z,58.4
2023-03-18T13:46:27.819Z,59.2
2023-03-18T13:47:43.031Z,59.2
2023-03-18T13:48:59.225Z,60
2023-03-18T13:50:15.673Z,60.3
2023-03-18T13:51:20.000Z,61
2023-03-18T13:52:37.000Z,60.9
2023-03-18T13:54:04.254Z,61.2
2023-03-18T13:55:20.463Z,61.4
2023-03-18T13:56:36.399Z,61
2023-03-18T13:57:52.842Z,60.7
2023-03-18T13:59:08.790Z,60.7
2023-03-18T14:00:14.000Z,60.1
2023-03-18T14:01:30.000Z,60.5
2023-03-18T14:02:57.377Z,59.7
2023-03-18T14:04:02.000Z,59.8
2023-03-18T14:05:18.000Z,60
2023-03-18T14:06:34.000Z,60.6
2023-03-18T14:08:01.427Z,60.5
2023-03-18T14:09:06.000Z,60.5
2023-03-18T14:10:33.566Z,60.6
2023-03-18T14:11:49.761Z,61.1
2023-03-18T14:13:06.209Z,61.2
2023-03-18T14:14:11.000Z,61.5
2023-03-18T14:15:38.348Z,61.7
2023-03-18T14:16:43.000Z,61.8
2023-03-18T14:18:10.739Z,61.7
2023-03-18T14:19:16.000Z,61.5
2023-03-18T14:20:32.000Z,61.7
2023-03-18T14:21:58.341Z,61.1
2023-03-18T14:23:14.537Z,60.9
2023-03-18T14:24:30.981Z,60.5
2023-03-18T14:25:36.000Z,60.3
2023-03-18T14:26:52.000Z,60.2
2023-03-18T14:28:19.587Z,60.1
2023-03-18T14:29:24.000Z,60.3
2023-03-18T14:30:51.710Z,59.7
2023-03-18T14:32:07.906Z,59.4
2023-03-18T14:33:24.101Z,59.6
2023-03-18T14:34:29.000Z,58.8
2023-03-18T14:35:56.746Z,59.1
2023-03-18T14:37:12.688Z,58.6
2023-03-18T14:37:47.000Z,57.5
2023-03-18T14:38:27.899Z,57.6
2023-03-18T14:39:44.338Z,58.2
2023-03-18T14:41:00.291Z,57.9
2023-03-18T14:42:05.000Z,57.6
2023-03-18T14:44:38.000Z,57.1
2023-03-18T14:46:05.073Z,57.1
2023-03-18T14:47:21.518Z,57
2023-03-18T14:48:37.464Z,57.2
2023-03-18T14:49:53.908Z,56.4
2023-03-18T14:51:10.101Z,56.5
2023-03-18T14:51:44.000Z,55.8
2023-03-18T14:52:26.292Z,56.1
2023-03-18T14:53:31.000Z,56
2023-03-18T14:54:46.000Z,56.3
2023-03-18T14:56:13.653Z,55.5
2023-03-18T14:58:46.303Z,55.1
2023-03-18T14:59:50.000Z,55.7
2023-03-18T15:01:05.000Z,54.6
2023-03-18T15:02:32.673Z,54.7
2023-03-18T15:03:38.000Z,54.6
2023-03-18T15:05:05.308Z,54.5
2023-03-18T15:06:20.543Z,54.6
2023-03-18T15:07:24.000Z,54.8
2023-03-18T15:08:51.695Z,55
2023-03-18T15:09:57.000Z,55.3
2023-03-18T15:11:24.086Z,54.8
2023-03-18T15:12:29.000Z,54.9
2023-03-18T15:13:56.477Z,54.6
2023-03-18T15:15:01.000Z,55
2023-03-18T15:16:18.000Z,54.6
2023-03-18T15:17:34.000Z,54.4
2023-03-18T15:19:01.259Z,55
2023-03-18T15:20:06.000Z,54.6
2023-03-18T15:21:33.906Z,55.2
2023-03-18T15:22:49.845Z,54.8
2023-03-18T15:24:05.058Z,55.3
2023-03-18T15:25:21.254Z,55.7
2023-03-18T15:26:26.000Z,55.4
2023-03-18T15:27:53.890Z,56.4
2023-03-18T15:29:10.107Z,56.1
2023-03-18T15:30:15.000Z,55.8
2023-03-18T15:31:42.485Z,56.2
2023-03-18T15:32:47.000Z,56.1
2023-03-18T15:34:03.000Z,56.6
2023-03-18T15:35:20.000Z,56.1
2023-03-18T15:36:47.260Z,57.3
2023-03-18T15:37:52.000Z,58
2023-03-18T15:39:19.404Z,57.1
2023-03-18T15:40:23.000Z,57.3
2023-03-18T15:41:51.056Z,57.2
2023-03-18T15:43:07.007Z,57.5
2023-03-18T15:44:23.462Z,57.7
2023-03-18T15:45:39.648Z,57.8
2023-03-18T15:46:55.847Z,58
2023-03-18T15:48:11.789Z,58.3
2023-03-18T15:49:27.985Z,58
2023-03-18T15:50:32.000Z,57.6
2023-03-18T15:51:58.419Z,58
2023-03-18T15:53:03.000Z,58
2023-03-18T15:54:29.837Z,58.3
2023-03-18T15:55:34.000Z,58.4
2023-03-18T15:56:50.000Z,58.5
2023-03-18T15:58:17.688Z,58.5
2023-03-18T15:59:33.635Z,58.6
2023-03-18T16:00:50.076Z,58.7
2023-03-18T16:02:06.282Z,58.8
2023-03-18T16:03:11.000Z,59.3
2023-03-18T16:04:38.671Z,58.8
2023-03-18T16:05:54.612Z,58.9
2023-03-18T16:07:10.808Z,59
2023-03-18T16:08:16.000Z,59.3
2023-03-18T16:09:43.199Z,59.2
2023-03-18T16:10:48.000Z,59.2
2023-03-18T16:12:15.590Z,59.3
2023-03-18T16:13:20.000Z,59.1
2023-03-18T16:14:46.997Z,59.4
2023-03-18T16:15:52.000Z,59.6
2023-03-18T16:17:19.388Z,59.4
2023-03-18T16:18:24.000Z,59.5
2023-03-18T16:19:41.000Z,59.5
2023-03-18T16:21:07.974Z,59.3
2023-03-18T16:22:24.431Z,59.6
2023-03-18T16:23:29.000Z,59.6
2023-03-18T16:24:56.562Z,60
2023-03-18T16:26:12.757Z,59.4
2023-03-18T16:27:18.000Z,59.6
2023-03-18T16:28:45.396Z,59.2
2023-03-18T16:30:00.616Z,59.4
2023-03-18T16:31:05.000Z,58.9
2023-03-18T16:32:32.997Z,58
2023-03-18T16:33:08.000Z,58.5
2023-03-18T16:33:38.000Z,58.2
2023-03-18T16:35:05.385Z,57.9
2023-03-18T16:36:10.000Z,58.2
2023-03-18T16:37:37.790Z,58.3
2023-03-18T16:40:10.175Z,58.2
2023-03-18T16:40:44.000Z,58.6
2023-03-18T16:41:26.366Z,58.1
2023-03-18T16:42:42.315Z,58
2023-03-18T16:43:47.000Z,58.2
2023-03-18T16:45:14.706Z,58.2
2023-03-18T16:47:46.359Z,58.6
2023-03-18T16:48:51.000Z,58.1
2023-03-18T16:50:18.751Z,57.5
2023-03-18T16:51:34.699Z,57.8
2023-03-18T16:52:51.144Z,57.5
2023-03-18T16:53:56.000Z,57.1
2023-03-18T16:55:23.286Z,57.3
2023-03-18T16:55:58.000Z,56.8
2023-03-18T16:56:39.481Z,57.1
2023-03-18T16:57:55.677Z,57.2
2023-03-18T16:59:01.000Z,57.1
2023-03-18T17:00:28.334Z,56.7